createdAt,value
2022-08-03T00:03:10.510Z,4.65
2022-08-03T00:06:04.161Z,6.38
2022-08-03T00:08:40.793Z,4.00
2022-08-03T00:14:54.615Z,9.57
2022-08-03T00:17:52.641Z,10.18
2022-08-03T00:20:25.458Z,4.65
2022-08-03T00:23:08.597Z,8.95
2022-08-03T00:26:26.430Z,9.75
2022-08-03T00:28:59.853Z,4.20
2022-08-03T00:31:52.799Z,6.50
2022-08-03T00:37:21.411Z,6.43
2022-08-03T00:40:22.219Z,6.50
2022-08-03T00:43:03.931Z,8.25
2022-08-03T00:45:46.867Z,10.95
2022-08-03T00:48:33.210Z,6.07
2022-08-03T00:51:16.759Z,5.47
2022-08-03T00:54:07.403Z,5.45
2022-08-03T00:56:59.546Z,4.28
2022-08-03T01:00:21.245Z,6.78
2022-08-03T01:02:31.586Z,7.18
2022-08-03T01:05:03.887Z,5.07
2022-08-03T01:07:51.560Z,4.72
2022-08-03T01:11:08.795Z,4.50
2022-08-03T01:14:20.240Z,4.85
2022-08-03T01:17:15.849Z,8.13
2022-08-03T01:20:07.140Z,6.82
2022-08-03T01:23:09.156Z,7.50
2022-08-03T01:26:14.535Z,4.25
2022-08-03T01:35:06.859Z,7.68
2022-08-03T01:37:45.012Z,3.33
2022-08-03T01:40:35.493Z,7.90
2022-08-03T01:43:14.672Z,8.90
2022-08-03T01:49:09.446Z,5.83
2022-08-03T01:52:05.659Z,5.50
2022-08-03T01:54:57.769Z,7.30
2022-08-03T01:58:05.837Z,6.47
2022-08-03T02:07:09.265Z,4.82
2022-08-03T02:10:01.082Z,5.28
2022-08-03T02:12:55.616Z,5.55
2022-08-03T02:15:38.897Z,3.55
2022-08-03T02:18:34.260Z,6.57
2022-08-03T02:21:57.112Z,8.32
2022-08-03T02:24:45.142Z,5.95
2022-08-03T02:27:29.607Z,7.72
2022-08-03T02:30:17.022Z,6.93
2022-08-03T02:33:01.021Z,7.72
2022-08-03T02:35:52.780Z,5.75
2022-08-03T02:38:54.154Z,5.53
2022-08-03T02:50:46.763Z,6.32
2022-08-03T02:53:36.607Z,7.60
2022-08-03T02:56:31.797Z,7.32
2022-08-03T02:59:26.348Z,14.70
2022-08-03T03:02:23.451Z,9.32
2022-08-03T03:05:53.197Z,10.23
2022-08-03T03:11:05.964Z,6.22
2022-08-03T03:14:33.452Z,10.05
2022-08-03T03:17:38.357Z,7.45
2022-08-03T03:23:53.696Z,7.78
2022-08-03T03:26:52.642Z,4.90
2022-08-03T03:33:01.047Z,9.80
2022-08-03T03:36:02.193Z,5.53
2022-08-03T03:41:45.240Z,4.97
2022-08-03T03:49:59.011Z,11.10
2022-08-03T03:55:59.348Z,9.98
2022-08-03T03:59:27.172Z,8.80
2022-08-03T04:02:51.163Z,8.55
2022-08-03T04:05:30.287Z,11.43
2022-08-03T04:08:26.608Z,9.38
2022-08-03T04:11:52.835Z,6.63
2022-08-03T04:14:56.232Z,10.25
2022-08-03T04:20:52.936Z,9.00
2022-08-03T04:23:32.051Z,5.27
2022-08-03T04:26:14.868Z,11.65
2022-08-03T04:28:56.987Z,6.63
2022-08-03T04:31:48.912Z,6.63
2022-08-03T04:34:20.904Z,11.23
2022-08-03T04:37:14.290Z,9.73
2022-08-03T04:43:25.421Z,5.93
2022-08-03T04:46:24.977Z,6.43
2022-08-03T04:49:18.535Z,10.48
2022-08-03T04:52:14.108Z,10.07
2022-08-03T05:01:13.610Z,9.85
2022-08-03T05:03:48.477Z,11.65
2022-08-03T05:06:33.313Z,6.32
2022-08-03T05:09:52.435Z,9.73
2022-08-03T05:12:59.996Z,8.43
2022-08-03T05:15:28.268Z,8.15
2022-08-03T05:20:48.876Z,6.45
2022-08-03T05:26:15.767Z,8.48
2022-08-03T05:28:51.195Z,9.23
2022-08-03T05:37:37.564Z,10.20
2022-08-03T05:40:25.407Z,7.25
2022-08-03T05:43:26.435Z,10.77
2022-08-03T05:46:12.230Z,8.77
2022-08-03T05:48:58.109Z,11.18
2022-08-03T05:54:22.758Z,12.00
2022-08-03T05:57:31.567Z,16.10
2022-08-03T06:00:28.735Z,11.25
2022-08-03T06:03:25.698Z,10.05
2022-08-03T06:06:10.186Z,12.77
2022-08-03T06:08:49.170Z,6.40
2022-08-03T06:11:38.762Z,9.43
2022-08-03T06:14:37.319Z,8.85
2022-08-03T06:17:13.107Z,11.05
2022-08-03T06:20:04.903Z,6.55
2022-08-03T06:26:52.506Z,13.63
2022-08-03T06:29:29.683Z,11.07
2022-08-03T06:32:21.053Z,16.27
2022-08-03T06:35:14.900Z,12.23
2022-08-03T06:44:50.861Z,12.30
2022-08-03T06:47:40.789Z,11.57
2022-08-03T06:50:26.011Z,13.70
2022-08-03T06:56:17.918Z,14.57
2022-08-03T06:59:09.485Z,9.57
2022-08-03T07:02:28.457Z,11.68
2022-08-03T07:05:22.393Z,15.70
2022-08-03T07:19:57.713Z,15.05
2022-08-03T07:23:16.132Z,18.75
2022-08-03T07:25:48.716Z,16.25
2022-08-03T07:31:53.345Z,17.58
2022-08-03T07:34:33.580Z,8.63
2022-08-03T07:37:29.345Z,12.98
2022-08-03T07:40:31.510Z,13.93
2022-08-03T07:43:34.398Z,12.20
2022-08-03T07:46:14.157Z,12.43
2022-08-03T07:48:54.141Z,13.20
2022-08-03T07:51:43.164Z,13.98
2022-08-03T07:54:35.896Z,11.88
2022-08-03T08:00:26.272Z,16.50
2022-08-03T08:03:15.200Z,15.85
2022-08-03T08:06:04.359Z,11.02
2022-08-03T08:17:16.289Z,14.40
2022-08-03T08:20:11.233Z,10.93
2022-08-03T08:22:50.351Z,12.52
2022-08-03T08:31:28.214Z,20.02
2022-08-03T08:34:26.964Z,20.70
2022-08-03T08:37:10.325Z,15.73
2022-08-03T08:40:13.883Z,15.75
2022-08-03T08:43:07.972Z,16.55
2022-08-03T08:46:10.634Z,18.95
2022-08-03T08:52:33.193Z,21.02
2022-08-03T08:58:35.691Z,19.85
2022-08-03T09:01:23.737Z,19.73
2022-08-03T09:04:01.762Z,18.40
2022-08-03T09:06:39.009Z,14.05
2022-08-03T09:12:49.977Z,14.48
2022-08-03T09:15:34.253Z,16.63
2022-08-03T09:18:46.274Z,19.00
2022-08-03T09:25:25.218Z,14.35
2022-08-03T09:31:32.178Z,13.55
2022-08-03T09:34:14.289Z,16.52
2022-08-03T09:37:23.640Z,14.07
2022-08-03T09:40:25.734Z,12.98
2022-08-03T09:43:24.174Z,16.58
2022-08-03T09:46:05.248Z,14.23
2022-08-03T09:48:45.971Z,17.90
2022-08-03T09:52:30.310Z,18.25
2022-08-03T09:56:32.693Z,11.43
2022-08-03T09:58:21.990Z,13.15
2022-08-03T10:01:23.833Z,13.95
2022-08-03T10:13:13.090Z,13.13
2022-08-03T10:16:21.562Z,16.25
2022-08-03T10:19:05.200Z,19.98
2022-08-03T10:21:47.737Z,18.13
2022-08-03T10:27:53.753Z,13.27
2022-08-03T10:30:37.345Z,16.67
2022-08-03T10:39:27.256Z,19.83
2022-08-03T10:42:14.799Z,23.02
2022-08-03T10:48:22.588Z,14.57
2022-08-03T10:54:56.993Z,20.73
2022-08-03T11:04:47.616Z,24.15
2022-08-03T11:07:44.125Z,19.30
2022-08-03T11:10:40.464Z,26.88
2022-08-03T11:13:32.894Z,17.05
2022-08-03T11:16:34.476Z,16.13
2022-08-03T11:26:28.870Z,21.10
2022-08-03T11:33:14.354Z,25.60
2022-08-03T11:36:13.341Z,11.57
2022-08-03T11:39:22.759Z,21.98
2022-08-03T11:42:59.407Z,19.23
2022-08-03T11:46:29.537Z,22.55
2022-08-03T11:59:15.212Z,15.88
2022-08-03T12:04:43.442Z,14.98
2022-08-03T12:07:25.054Z,14.73
2022-08-03T12:10:25.384Z,17.35
2022-08-03T12:16:33.587Z,15.48
2022-08-03T12:25:20.559Z,15.65
2022-08-03T12:28:49.526Z,18.00
2022-08-03T12:32:06.315Z,17.08
2022-08-03T12:35:02.631Z,12.77
2022-08-03T12:37:57.942Z,18.70
2022-08-03T12:40:51.188Z,16.88
2022-08-03T12:44:07.651Z,15.55
2022-08-03T12:47:27.381Z,13.63
2022-08-03T12:50:10.704Z,13.20
2022-08-03T12:52:52.255Z,13.93
2022-08-03T12:55:57.651Z,17.77
2022-08-03T12:58:57.897Z,16.48
2022-08-03T13:01:54.819Z,13.55
2022-08-03T13:04:56.225Z,21.90
2022-08-03T13:07:45.860Z,18.35
2022-08-03T13:13:41.678Z,25.20
2022-08-03T13:19:36.547Z,15.57
2022-08-03T13:22:13.781Z,14.80
2022-08-03T13:28:03.095Z,16.35
2022-08-03T13:30:50.774Z,16.70
2022-08-03T13:36:24.361Z,18.60
2022-08-03T13:42:25.859Z,13.48
2022-08-03T13:45:11.646Z,17.50
2022-08-03T13:51:22.746Z,19.55
2022-08-03T13:54:09.336Z,15.25
2022-08-03T13:58:01.269Z,16.65
2022-08-03T14:06:12.721Z,18.10
2022-08-03T14:18:12.907Z,13.60
2022-08-03T14:21:23.303Z,21.33
2022-08-03T14:24:00.805Z,11.10
2022-08-03T14:32:13.418Z,18.90
2022-08-03T14:38:27.637Z,15.85
2022-08-03T14:44:38.623Z,11.23
2022-08-03T14:47:32.420Z,16.27
2022-08-03T14:50:41.976Z,13.10
2022-08-03T14:54:08.829Z,14.05
2022-08-03T15:00:31.186Z,11.65
2022-08-03T15:12:40.531Z,14.95
2022-08-03T15:18:04.575Z,10.43
2022-08-03T15:21:16.679Z,11.75
2022-08-03T15:23:59.954Z,7.85
2022-08-03T15:26:42.398Z,9.63
2022-08-03T15:31:59.870Z,9.65
2022-08-03T15:38:28.930Z,12.05
2022-08-03T15:41:13.790Z,9.65
2022-08-03T15:47:15.032Z,13.30
2022-08-03T15:53:12.439Z,13.05
2022-08-03T15:55:54.546Z,12.82
2022-08-03T15:59:11.701Z,9.93
2022-08-03T16:02:07.362Z,17.02
2022-08-03T16:05:07.362Z,11.70
2022-08-03T16:08:03.615Z,8.77
2022-08-03T16:14:34.854Z,14.60
2022-08-03T16:17:01.179Z,12.95
2022-08-03T16:19:46.728Z,12.45
2022-08-03T16:22:38.962Z,11.35
2022-08-03T16:25:43.954Z,9.23
2022-08-03T16:28:28.047Z,13.25
2022-08-03T16:31:06.098Z,14.77
2022-08-03T16:33:43.162Z,14.60
2022-08-03T16:36:38.205Z,12.40
2022-08-03T16:39:19.557Z,7.55
2022-08-03T16:42:12.233Z,10.40
2022-08-03T16:44:42.370Z,11.73
2022-08-03T16:47:22.945Z,11.00
2022-08-03T16:50:15.823Z,11.55
2022-08-03T16:56:22.071Z,9.18
2022-08-03T16:59:09.678Z,12.82
2022-08-03T17:01:47.266Z,11.90
2022-08-03T17:07:29.641Z,12.63
2022-08-03T17:10:15.957Z,15.15
2022-08-03T17:13:09.073Z,11.95
2022-08-03T17:16:06.826Z,12.73
2022-08-03T17:22:16.455Z,20.38
2022-08-03T17:25:00.999Z,14.50
2022-08-03T17:30:53.845Z,11.13
2022-08-03T17:33:55.006Z,11.95
2022-08-03T17:39:55.544Z,13.15
2022-08-03T17:42:29.650Z,11.18
2022-08-03T17:45:03.901Z,17.08
2022-08-03T17:47:57.486Z,13.98
2022-08-03T17:51:01.998Z,10.90
2022-08-03T17:54:18.397Z,16.98
2022-08-03T17:57:22.404Z,17.00
2022-08-03T18:03:16.151Z,10.77
2022-08-03T18:06:12.922Z,10.50
2022-08-03T18:10:04.314Z,13.05
2022-08-03T18:12:57.672Z,14.32
2022-08-03T18:16:04.512Z,12.27
2022-08-03T18:18:50.099Z,19.05
2022-08-03T18:21:23.687Z,12.55
2022-08-03T18:24:03.335Z,9.65
2022-08-03T18:26:37.981Z,17.35
2022-08-03T18:29:14.368Z,13.80
2022-08-03T18:32:02.530Z,10.65
2022-08-03T18:37:25.756Z,16.23
2022-08-03T18:40:01.393Z,12.65
2022-08-03T18:42:52.896Z,10.43
2022-08-03T18:45:55.901Z,15.32
2022-08-03T18:51:43.332Z,10.52
2022-08-03T18:54:57.807Z,18.80
2022-08-03T19:00:10.474Z,15.63
2022-08-03T19:02:52.212Z,12.48
2022-08-03T19:05:57.817Z,13.30
2022-08-03T19:08:44.325Z,8.93
2022-08-03T19:11:20.019Z,11.65
2022-08-03T19:14:03.880Z,9.82
2022-08-03T19:16:38.822Z,10.95
2022-08-03T19:22:09.524Z,9.23
2022-08-03T19:25:04.386Z,16.70
2022-08-03T19:28:39.108Z,12.07
2022-08-03T19:34:22.001Z,11.55
2022-08-03T19:37:03.870Z,9.18
2022-08-03T19:42:54.822Z,10.00
2022-08-03T19:46:09.600Z,12.52
2022-08-03T19:49:21.184Z,7.20
2022-08-03T19:55:13.553Z,12.07
2022-08-03T19:57:53.696Z,12.05
2022-08-03T20:03:27.316Z,9.75
2022-08-03T20:12:06.574Z,11.77
2022-08-03T20:14:45.802Z,12.40
2022-08-03T20:17:21.315Z,10.05
2022-08-03T20:20:05.699Z,12.73
2022-08-03T20:22:46.243Z,9.88
2022-08-03T20:25:57.144Z,11.77
2022-08-03T20:28:53.832Z,8.63
2022-08-03T20:31:32.429Z,7.63
2022-08-03T20:34:13.415Z,12.82
2022-08-03T20:36:59.189Z,11.15
2022-08-03T20:42:30.450Z,11.90
2022-08-03T20:46:01.206Z,13.07
2022-08-03T20:48:12.121Z,10.65
2022-08-03T20:50:51.728Z,15.18
2022-08-03T20:53:56.835Z,8.43
2022-08-03T20:56:22.394Z,12.18
2022-08-03T20:58:57.487Z,10.55
2022-08-03T21:01:37.157Z,15.57
2022-08-03T21:04:16.365Z,8.15
2022-08-03T21:07:16.372Z,11.55
2022-08-03T21:09:52.745Z,13.25
2022-08-03T21:12:44.095Z,6.28
2022-08-03T21:16:03.261Z,15.13
2022-08-03T21:18:21.841Z,9.07
2022-08-03T21:21:02.420Z,11.63
2022-08-03T21:23:47.805Z,10.20
2022-08-03T21:26:29.215Z,7.07
2022-08-03T21:29:20.771Z,11.00
2022-08-03T21:31:52.448Z,8.95
2022-08-03T21:34:34.836Z,7.38
2022-08-03T21:37:20.574Z,5.07
2022-08-03T21:39:55.046Z,8.80
2022-08-03T21:42:34.626Z,6.13
2022-08-03T21:45:17.121Z,8.93
2022-08-03T21:47:56.026Z,7.47
2022-08-03T21:50:30.547Z,6.93
2022-08-03T21:53:16.671Z,7.88
2022-08-03T21:55:55.444Z,9.48
2022-08-03T21:58:34.242Z,9.50
2022-08-03T22:01:16.395Z,8.63
2022-08-03T22:03:51.108Z,9.93
2022-08-03T22:09:26.747Z,5.10
2022-08-03T22:12:01.025Z,11.15
2022-08-03T22:15:00.349Z,5.65
2022-08-03T22:17:54.920Z,7.33
2022-08-03T22:20:35.987Z,7.47
2022-08-03T22:23:21.326Z,7.45
2022-08-03T22:25:59.873Z,8.70
2022-08-03T22:28:59.838Z,6.20
2022-08-03T22:31:58.082Z,5.35
2022-08-03T22:34:32.429Z,7.13
2022-08-03T22:37:10.287Z,6.70
2022-08-03T22:39:58.657Z,6.35
2022-08-03T22:42:31.058Z,7.53
2022-08-03T22:45:05.019Z,6.20
2022-08-03T22:47:43.691Z,8.05
2022-08-03T22:50:31.356Z,9.10
2022-08-03T22:53:36.771Z,7.15
2022-08-03T22:57:06.464Z,7.13
2022-08-03T22:59:45.101Z,7.55
2022-08-03T23:02:25.313Z,6.72
2022-08-03T23:05:59.612Z,4.30
2022-08-03T23:08:06.057Z,7.90
2022-08-03T23:10:40.695Z,6.82
2022-08-03T23:13:16.508Z,7.65
2022-08-03T23:16:08.782Z,6.45
2022-08-03T23:19:00.031Z,3.33
2022-08-03T23:22:03.315Z,6.32
2022-08-03T23:24:37.447Z,7.90
2022-08-03T23:27:30.246Z,6.88
2022-08-03T23:30:05.189Z,6.05
2022-08-03T23:32:44.411Z,7.65
2022-08-03T23:36:29.739Z,4.55
2022-08-03T23:38:37.778Z,6.35
2022-08-03T23:41:26.290Z,6.32
2022-08-03T23:47:05.767Z,5.72
2022-08-03T23:49:38.978Z,9.02
2022-08-03T23:55:26.235Z,5.50
